< Typhoon 200002 2000 Season Typhoon 200004 >
Typhoon 200003 (KIROGI)
General InformationTrack Information on Google MapsDetailed Wind InformationList of All Images || NewsDisaster Info.ResourceGoogle EarthGE AnimationAtom FeedGeoJSON
Detalied Best Track (Time Zone = UTC)
Year Month Day Hour Lat. Long. Pressure (hPa) Wind (kt) Class Image Chart
2000 7 2 06 12.8 133.2 1002 0 2 Image Chart
2000 7 2 12 13.3 133.0 1000 0 2 Image Chart
2000 7 2 18 14.2 132.5 996 0 2 Image Chart
2000 7 3 00 15.5 132.1 994 0 2 Image Chart
2000 7 3 06 16.2 131.8 990 40 3 Image Chart
2000 7 3 12 16.7 131.7 985 50 4 Image Chart
2000 7 3 18 17.1 131.7 970 65 5 Image Chart
2000 7 4 00 17.7 131.7 960 70 5 Image Chart
2000 7 4 06 18.3 131.6 950 80 5 Image Chart
2000 7 4 12 19.2 131.5 945 80 5 Image Chart
2000 7 4 18 19.9 131.4 945 80 5 Image Chart
2000 7 5 00 20.8 131.9 940 85 5 Image Chart
2000 7 5 06 21.7 132.4 940 85 5 Image Chart
2000 7 5 12 22.5 133.0 940 85 5 Image Chart
2000 7 5 18 23.4 133.6 945 80 5 Image Chart
2000 7 6 00 24.2 134.2 950 80 5 Image Chart
2000 7 6 06 24.9 134.6 955 75 5 Image Chart
2000 7 6 12 25.8 135.3 955 75 5 Image Chart
2000 7 6 18 26.9 136.0 955 75 5 Image Chart
2000 7 7 00 28.2 136.8 955 75 5 Image Chart
2000 7 7 06 29.9 137.7 955 75 5 Image Chart
2000 7 7 09 30.8 138.2 955 75 5 Image Chart
2000 7 7 12 31.8 138.9 955 75 5 Image Chart
2000 7 7 15 33.0 139.4 955 75 5 Image Chart
2000 7 7 18 34.2 139.9 955 75 5 Image Chart
2000 7 7 21 35.4 140.9 960 70 5 Image Chart
2000 7 8 00 36.5 141.3 970 60 4 Image Chart
2000 7 8 03 38.0 142.0 975 55 4 Image Chart
2000 7 8 06 39.2 142.7 975 55 4 Image Chart
2000 7 8 09 40.4 143.4 980 50 4 Image Chart
2000 7 8 12 41.2 143.9 985 50 4 Image Chart
2000 7 8 15 41.8 144.3 985 50 4 Image Chart
2000 7 8 18 41.9 144.7 985 50 4 Image Chart
2000 7 8 21 42.1 145.7 986 0 6 Image Chart
2000 7 9 00 42.3 146.9 988 0 6 Image Chart
2000 7 9 06 42.9 149.5 992 0 6 Image Chart
2000 7 9 12 43.0 153.4 994 0 6 Image Chart
2000 7 9 18 43.0 157.1 996 0 6 Image Chart
2000 7 10 00 43.0 161.5 996 0 6 Image Chart
2000 7 10 06 43.5 165.2 998 0 6 Image Chart
Japan Meteorological Agency Best Track Data | Correction Date : 2001-12-21
< Typhoon 200002 2000 Season Typhoon 200004 >

Help